This is the latest recevied weather packets stored in our database for station/object OK0BPL-5. If no packets are shown the sender has not sent any weather packets the latest 10 day(s).
| Time | Temp. | Humidity | Pressure | Rain* | Wind** | Luminosity | Snow |
|---|---|---|---|---|---|---|---|
| 1787762132 | 27.22° C | 45% | 1040.2 hPa | 0 mm | - | 30 W/m² | - |
| 1787761232 | 27.22° C | 46% | 1040.6 hPa | 0 mm | - | 39 W/m² | - |
| 1787761232 | 27.22° C | 46% | 1040.6 hPa | 0 mm | - | 39 W/m² | - |
| 1787760332 | 25.56° C | 50% | 1040.9 hPa | 0 mm | - | 39 W/m² | - |
| 1787759432 | 25.56° C | 51% | 1041 hPa | 0 mm | - | 35 W/m² | - |
| 1787758532 | 25.56° C | 50% | 1041 hPa | 0 mm | - | 55 W/m² | - |
| 1787758532 | 25.56° C | 50% | 1041 hPa | 0 mm | - | 55 W/m² | - |
| 1787757632 | 26.11° C | 48% | 1040.8 hPa | 0 mm | - | 52 W/m² | - |
| 1787757632 | 26.11° C | 48% | 1040.8 hPa | 0 mm | - | 52 W/m² | - |
| 1787756732 | 26.11° C | 47% | 1040.8 hPa | 0 mm | - | 64 W/m² | - |
| 1787756732 | 26.11° C | 47% | 1040.8 hPa | 0 mm | - | 64 W/m² | - |
| 1787755832 | 26.11° C | 48% | 1040.6 hPa | 0 mm | - | 45 W/m² | - |
| 1787755832 | 26.11° C | 48% | 1040.6 hPa | 0 mm | - | 45 W/m² | - |
| 1787754932 | 27.22° C | 44% | 1039.8 hPa | 0 mm | - | 53 W/m² | - |
| 1787754932 | 27.22° C | 44% | 1039.8 hPa | 0 mm | - | 53 W/m² | - |
| 1787754032 | 30° C | 39% | 1039.6 hPa | 0 mm | - | 175 W/m² | - |
| 1787753132 | 27.78° C | 46% | 1040.4 hPa | 0 mm | - | 213 W/m² | - |
| 1787753132 | 27.78° C | 46% | 1040.4 hPa | 0 mm | - | 213 W/m² | - |
| 1787752232 | 26.11° C | 49% | 1040.7 hPa | 0 mm | - | 84 W/m² | - |
| 1787752232 | 26.11° C | 49% | 1040.7 hPa | 0 mm | - | 84 W/m² | - |
| 1787751332 | 27.78° C | 44% | 1040.3 hPa | 0 mm | - | 62 W/m² | - |
| 1787751332 | 27.78° C | 44% | 1040.3 hPa | 0 mm | - | 62 W/m² | - |
| 1787750432 | 28.33° C | 43% | 1040.3 hPa | 0 mm | - | 159 W/m² | - |
| 1787750432 | 28.33° C | 43% | 1040.3 hPa | 0 mm | - | 159 W/m² | - |
| 1787749532 | 26.67° C | 47% | 1040.4 hPa | 0 mm | - | 143 W/m² | - |
* Rain latest hour (hover to see other rain measurements)
** Current wind speed in m/s (hover to see current wind gust speed)